createdAt,value
2023-05-19T00:01:28.387Z,8.87
2023-05-19T00:04:05.461Z,8.20
2023-05-19T00:06:41.656Z,9.10
2023-05-19T00:09:15.405Z,8.43
2023-05-19T00:11:50.823Z,8.53
2023-05-19T00:14:25.795Z,8.77
2023-05-19T00:17:02.190Z,8.50
2023-05-19T00:19:35.555Z,7.90
2023-05-19T00:22:09.692Z,8.80
2023-05-19T00:24:43.220Z,8.63
2023-05-19T00:27:16.686Z,8.70
2023-05-19T00:29:50.657Z,8.23
2023-05-19T00:32:24.773Z,9.07
2023-05-19T00:34:59.567Z,8.60
2023-05-19T00:37:33.609Z,9.13
2023-05-19T00:40:10.056Z,7.90
2023-05-19T00:42:44.458Z,8.57
2023-05-19T00:45:18.296Z,8.43
2023-05-19T00:47:51.898Z,8.17
2023-05-19T00:50:27.454Z,7.87
2023-05-19T00:53:01.351Z,8.50
2023-05-19T00:55:38.479Z,8.23
2023-05-19T00:58:13.228Z,8.50
2023-05-19T01:00:47.463Z,8.70
2023-05-19T01:03:21.784Z,8.20
2023-05-19T01:05:56.011Z,8.53
2023-05-19T01:08:31.828Z,8.53
2023-05-19T01:11:06.865Z,7.90
2023-05-19T01:13:42.188Z,9.33
2023-05-19T01:16:24.024Z,8.27
2023-05-19T01:19:06.951Z,8.63
2023-05-19T01:22:13.459Z,8.13
2023-05-19T01:25:25.591Z,8.43
2023-05-19T01:28:27.921Z,8.03
2023-05-19T01:31:04.311Z,7.97
2023-05-19T01:33:39.493Z,9.20
2023-05-19T01:36:14.857Z,8.20
2023-05-19T01:38:50.154Z,8.37
2023-05-19T01:41:26.204Z,8.10
2023-05-19T01:44:00.792Z,8.80
2023-05-19T01:46:35.827Z,8.37
2023-05-19T01:49:11.501Z,8.17
2023-05-19T01:51:45.820Z,9.43
2023-05-19T01:54:18.757Z,8.53
2023-05-19T01:57:02.045Z,8.57
2023-05-19T01:59:44.090Z,8.10
2023-05-19T02:05:01.743Z,8.80
2023-05-19T02:07:46.128Z,9.37
2023-05-19T02:10:25.493Z,9.33
2023-05-19T02:13:02.840Z,9.73
2023-05-19T02:15:42.324Z,9.53
2023-05-19T02:18:20.630Z,9.27
2023-05-19T02:20:58.229Z,9.63
2023-05-19T02:23:32.506Z,10.17
2023-05-19T02:26:08.806Z,9.13
2023-05-19T02:28:41.960Z,9.83
2023-05-19T02:31:15.765Z,9.50
2023-05-19T02:33:49.074Z,9.20
2023-05-19T02:36:23.272Z,9.30
2023-05-19T02:38:57.814Z,9.17
2023-05-19T02:41:32.412Z,9.87
2023-05-19T02:44:06.520Z,9.83
2023-05-19T02:46:41.186Z,8.90
2023-05-19T02:49:15.000Z,10.03
2023-05-19T02:51:48.459Z,9.83
2023-05-19T02:54:21.503Z,9.47
2023-05-19T02:56:55.244Z,9.30
2023-05-19T02:59:29.268Z,10.27
2023-05-19T03:02:04.531Z,9.65
2023-05-19T03:04:42.992Z,9.23
2023-05-19T03:07:17.103Z,9.80
2023-05-19T03:09:50.296Z,9.73
2023-05-19T03:12:24.005Z,9.73
2023-05-19T03:14:57.198Z,9.03
2023-05-19T03:17:34.372Z,9.20
2023-05-19T03:20:11.512Z,9.70
2023-05-19T03:22:45.377Z,8.80
2023-05-19T03:25:19.080Z,8.80
2023-05-19T03:27:53.211Z,9.37
2023-05-19T03:30:27.418Z,9.23
2023-05-19T03:33:13.067Z,9.80
2023-05-19T03:35:46.372Z,9.47
2023-05-19T03:38:20.160Z,9.07
2023-05-19T03:40:58.250Z,9.90
2023-05-19T03:43:32.300Z,9.77
2023-05-19T03:46:09.943Z,9.90
2023-05-19T03:49:15.297Z,9.10
2023-05-19T03:52:10.045Z,9.00
2023-05-19T03:54:59.282Z,9.43
2023-05-19T03:57:33.931Z,9.33
2023-05-19T04:00:11.587Z,9.13
2023-05-19T04:02:48.685Z,9.57
2023-05-19T04:05:23.657Z,8.73
2023-05-19T04:07:57.558Z,9.40
2023-05-19T04:10:32.488Z,10.10
2023-05-19T04:13:05.993Z,9.70
2023-05-19T04:15:39.598Z,10.30
2023-05-19T04:18:13.840Z,10.40
2023-05-19T04:20:47.584Z,10.03
2023-05-19T04:23:21.703Z,10.37
2023-05-19T04:25:57.307Z,10.60
2023-05-19T04:28:31.605Z,10.07
2023-05-19T04:31:11.195Z,9.83
2023-05-19T04:33:46.317Z,11.00
2023-05-19T04:36:21.968Z,10.13
2023-05-19T04:39:02.483Z,10.03
2023-05-19T04:41:36.340Z,10.77
2023-05-19T04:44:11.286Z,10.40
2023-05-19T04:46:45.524Z,10.40
2023-05-19T04:49:20.944Z,10.50
2023-05-19T04:51:56.838Z,10.53
2023-05-19T04:54:32.837Z,10.87
2023-05-19T04:57:07.958Z,10.73
2023-05-19T04:59:44.937Z,10.80
2023-05-19T05:02:18.834Z,11.00
2023-05-19T05:04:54.922Z,10.87
2023-05-19T05:07:31.578Z,10.13
2023-05-19T05:10:06.257Z,11.07
2023-05-19T05:12:42.978Z,10.10
2023-05-19T05:15:19.801Z,10.53
2023-05-19T05:17:57.070Z,10.70
2023-05-19T05:20:34.694Z,9.53
2023-05-19T05:23:14.837Z,10.60
2023-05-19T05:25:51.984Z,9.77
2023-05-19T05:28:25.814Z,9.90
2023-05-19T05:30:59.696Z,10.27
2023-05-19T05:33:33.559Z,9.70
2023-05-19T05:36:08.878Z,9.53
2023-05-19T05:38:42.522Z,10.17
2023-05-19T05:41:17.672Z,10.47
2023-05-19T05:43:53.148Z,9.67
2023-05-19T05:46:27.423Z,9.40
2023-05-19T05:49:03.183Z,9.43
2023-05-19T05:51:38.546Z,10.07
2023-05-19T05:54:17.436Z,9.50
2023-05-19T05:56:53.562Z,9.90
2023-05-19T05:59:27.735Z,8.93
2023-05-19T06:02:01.835Z,9.93
2023-05-19T06:04:36.602Z,9.40
2023-05-19T06:07:11.197Z,9.87
2023-05-19T06:09:44.422Z,9.13
2023-05-19T06:12:18.541Z,9.33
2023-05-19T06:14:54.053Z,9.33
2023-05-19T06:17:44.708Z,9.03
2023-05-19T06:20:20.520Z,8.70
2023-05-19T06:22:54.638Z,10.07
2023-05-19T06:25:28.525Z,9.17
2023-05-19T06:28:02.675Z,8.90
2023-05-19T06:30:37.186Z,9.60
2023-05-19T06:33:22.738Z,9.20
2023-05-19T06:35:56.709Z,9.57
2023-05-19T06:38:31.708Z,9.80
2023-05-19T06:41:06.102Z,9.63
2023-05-19T06:43:40.346Z,9.40
2023-05-19T06:46:18.106Z,9.23
2023-05-19T06:48:51.808Z,8.40
2023-05-19T06:51:27.170Z,8.57
2023-05-19T06:54:03.180Z,9.20
2023-05-19T06:56:38.337Z,9.43
2023-05-19T06:59:13.240Z,9.00
2023-05-19T07:01:48.227Z,9.13
2023-05-19T07:04:23.848Z,8.40
2023-05-19T07:06:57.713Z,8.43
2023-05-19T07:09:31.173Z,8.43
2023-05-19T07:12:05.468Z,8.80
2023-05-19T07:14:40.220Z,9.27
2023-05-19T07:17:14.896Z,9.30
2023-05-19T07:19:50.827Z,8.40
2023-05-19T07:22:25.360Z,8.70
2023-05-19T07:24:58.922Z,9.03
2023-05-19T07:27:32.753Z,8.87
2023-05-19T07:30:10.111Z,8.70
2023-05-19T07:32:43.683Z,8.03
2023-05-19T07:35:17.957Z,8.87
2023-05-19T07:37:52.731Z,9.00
2023-05-19T07:40:26.207Z,9.10
2023-05-19T07:42:59.570Z,9.37
2023-05-19T07:45:33.526Z,8.83
2023-05-19T07:48:08.048Z,8.57
2023-05-19T07:50:41.566Z,9.10
2023-05-19T07:53:15.911Z,7.60
2023-05-19T07:55:50.354Z,8.93
2023-05-19T07:58:24.745Z,8.63
2023-05-19T08:01:00.709Z,8.30
2023-05-19T08:03:34.858Z,8.83
2023-05-19T08:06:09.617Z,8.20
2023-05-19T08:08:43.820Z,8.70
2023-05-19T08:11:17.818Z,8.73
2023-05-19T08:13:51.986Z,7.37
2023-05-19T08:16:25.836Z,7.67
2023-05-19T08:19:02.716Z,8.37
2023-05-19T08:21:37.353Z,7.70
2023-05-19T08:24:11.656Z,8.47
2023-05-19T08:26:47.228Z,8.47
2023-05-19T08:29:21.225Z,8.67
2023-05-19T08:31:55.324Z,7.70
2023-05-19T08:34:29.249Z,7.77
2023-05-19T08:37:03.629Z,7.67
2023-05-19T08:39:36.897Z,8.03
2023-05-19T08:42:11.676Z,8.00
2023-05-19T08:44:45.980Z,7.80
2023-05-19T08:47:21.162Z,8.60
2023-05-19T08:50:03.587Z,7.63
2023-05-19T08:52:52.540Z,7.93
2023-05-19T08:55:34.715Z,8.20
2023-05-19T08:58:09.700Z,7.37
2023-05-19T09:00:44.886Z,7.70
2023-05-19T09:03:23.935Z,7.87
2023-05-19T09:05:58.384Z,7.47
2023-05-19T09:08:32.556Z,7.80
2023-05-19T09:11:06.579Z,6.97
2023-05-19T09:13:40.792Z,7.60
2023-05-19T09:16:14.308Z,7.73
2023-05-19T09:19:01.185Z,7.43
2023-05-19T09:21:36.667Z,7.80
2023-05-19T09:24:12.671Z,7.73
2023-05-19T09:26:46.250Z,7.97
2023-05-19T09:29:20.440Z,6.73
2023-05-19T09:32:01.059Z,7.77
2023-05-19T09:34:35.665Z,7.40
2023-05-19T09:37:09.888Z,7.97
2023-05-19T09:39:49.012Z,7.30
2023-05-19T09:42:29.976Z,7.30
2023-05-19T09:45:08.733Z,7.37
2023-05-19T09:47:44.291Z,6.93
2023-05-19T09:50:18.427Z,7.50
2023-05-19T09:52:53.617Z,7.07
2023-05-19T09:55:30.578Z,6.70
2023-05-19T09:58:06.390Z,7.03
2023-05-19T10:00:41.731Z,6.27
2023-05-19T10:03:17.859Z,6.47
2023-05-19T10:05:53.024Z,7.30
2023-05-19T10:08:27.868Z,6.10
2023-05-19T10:11:01.708Z,6.97
2023-05-19T10:13:39.010Z,6.87
2023-05-19T10:16:13.673Z,7.00
2023-05-19T10:18:47.593Z,6.57
2023-05-19T10:21:21.743Z,6.90
2023-05-19T10:23:55.937Z,6.40
2023-05-19T10:26:30.124Z,7.10
2023-05-19T10:29:04.422Z,6.83
2023-05-19T10:31:40.456Z,6.97
2023-05-19T10:34:37.898Z,6.30
2023-05-19T10:37:22.345Z,6.93
2023-05-19T10:39:56.520Z,6.60
2023-05-19T10:42:38.444Z,7.20
2023-05-19T10:45:19.334Z,6.97
2023-05-19T10:47:53.763Z,5.83
2023-05-19T10:50:30.491Z,6.67
2023-05-19T10:53:06.063Z,6.63
2023-05-19T10:55:56.436Z,6.07
2023-05-19T10:58:51.032Z,6.20
2023-05-19T11:01:31.125Z,6.20
2023-05-19T11:04:12.560Z,6.50
2023-05-19T11:06:54.176Z,6.93
2023-05-19T11:09:38.209Z,6.57
2023-05-19T11:12:14.598Z,6.60
2023-05-19T11:14:48.605Z,6.37
2023-05-19T11:17:24.109Z,5.93
2023-05-19T11:20:00.301Z,6.17
2023-05-19T11:22:37.281Z,5.37
2023-05-19T11:25:10.906Z,6.00
2023-05-19T11:27:47.933Z,5.30
2023-05-19T11:30:22.071Z,6.33
2023-05-19T11:32:57.954Z,6.03
2023-05-19T11:35:36.263Z,5.53
2023-05-19T11:38:10.259Z,5.70
2023-05-19T11:40:45.452Z,5.30
2023-05-19T11:43:19.456Z,6.30
2023-05-19T11:45:54.798Z,5.83
2023-05-19T11:48:28.280Z,5.90
2023-05-19T11:51:03.422Z,5.77
2023-05-19T11:53:38.890Z,5.40
2023-05-19T11:56:13.290Z,6.10
2023-05-19T11:58:46.978Z,5.27
2023-05-19T12:01:20.598Z,5.57
2023-05-19T12:03:54.736Z,5.47
2023-05-19T12:06:29.223Z,5.10
2023-05-19T12:09:03.287Z,5.57
2023-05-19T12:11:39.492Z,5.20
2023-05-19T12:14:14.670Z,5.30
2023-05-19T12:16:49.115Z,5.37
2023-05-19T12:19:26.363Z,5.77
2023-05-19T12:22:01.666Z,5.33
2023-05-19T12:24:37.568Z,5.10
2023-05-19T12:27:14.283Z,5.23
2023-05-19T12:29:53.585Z,4.80
2023-05-19T12:32:29.296Z,5.40
2023-05-19T12:35:03.553Z,5.17
2023-05-19T12:37:38.362Z,4.80
2023-05-19T12:40:16.924Z,5.03
2023-05-19T12:42:52.335Z,4.63
2023-05-19T12:45:28.706Z,4.97
2023-05-19T12:48:07.344Z,4.57
2023-05-19T12:50:41.553Z,4.63
2023-05-19T12:53:16.391Z,4.80
2023-05-19T12:55:49.787Z,4.70
2023-05-19T12:58:24.625Z,5.03
2023-05-19T13:01:01.773Z,4.90
2023-05-19T13:03:40.961Z,5.17
2023-05-19T13:06:14.920Z,5.03
2023-05-19T13:08:50.238Z,5.03
2023-05-19T13:11:24.527Z,5.10
2023-05-19T13:13:58.395Z,4.63
2023-05-19T13:16:31.703Z,5.00
2023-05-19T13:19:06.353Z,4.80
2023-05-19T13:21:40.623Z,4.37
2023-05-19T13:24:14.731Z,4.40
2023-05-19T13:26:49.338Z,4.27
2023-05-19T13:29:22.610Z,4.87
2023-05-19T13:31:57.346Z,4.60
2023-05-19T13:34:32.130Z,4.53
2023-05-19T13:37:07.670Z,4.30
2023-05-19T13:39:42.709Z,4.83
2023-05-19T13:42:17.758Z,4.40
2023-05-19T13:44:51.728Z,4.77
2023-05-19T13:47:27.056Z,4.80
2023-05-19T13:50:01.286Z,4.57
2023-05-19T13:52:35.614Z,4.60
2023-05-19T13:55:10.200Z,4.20
2023-05-19T13:57:44.357Z,4.43
2023-05-19T14:00:21.523Z,4.83
2023-05-19T14:02:55.538Z,4.57
2023-05-19T14:05:31.383Z,4.83
2023-05-19T14:08:05.686Z,4.27
2023-05-19T14:10:39.022Z,4.53
2023-05-19T14:13:31.036Z,8.90
2023-05-19T14:16:08.210Z,7.10
2023-05-19T14:18:42.325Z,6.13
2023-05-19T14:21:16.647Z,6.13
2023-05-19T14:23:50.585Z,5.50
2023-05-19T14:26:24.387Z,4.93
2023-05-19T14:28:58.662Z,5.87
2023-05-19T14:31:32.781Z,5.17
2023-05-19T14:34:06.890Z,5.10
2023-05-19T14:36:41.327Z,5.10
2023-05-19T14:39:15.266Z,4.47
2023-05-19T14:41:51.228Z,4.77
2023-05-19T14:44:24.960Z,5.17
2023-05-19T14:46:58.785Z,5.20
2023-05-19T14:49:32.944Z,4.70
2023-05-19T14:52:07.928Z,4.90
2023-05-19T14:54:41.636Z,4.57
2023-05-19T14:57:16.058Z,4.07
2023-05-19T14:59:50.384Z,4.53
2023-05-19T15:02:24.702Z,4.00
2023-05-19T15:04:58.776Z,4.70
2023-05-19T15:07:32.982Z,4.40
2023-05-19T15:10:06.592Z,4.20
2023-05-19T15:12:40.687Z,4.47
2023-05-19T15:15:17.402Z,4.30
2023-05-19T15:17:51.084Z,4.10
2023-05-19T15:20:25.639Z,4.47
2023-05-19T15:23:01.123Z,4.77
2023-05-19T15:25:34.459Z,4.43
2023-05-19T15:28:08.497Z,4.37
2023-05-19T15:30:43.751Z,4.20
2023-05-19T15:33:17.593Z,4.23
2023-05-19T15:35:52.457Z,4.67
2023-05-19T15:38:27.832Z,4.50
2023-05-19T15:41:07.129Z,4.53
2023-05-19T15:43:41.756Z,4.00
2023-05-19T15:46:16.426Z,4.20
2023-05-19T15:48:49.968Z,4.13
2023-05-19T15:51:24.502Z,4.30
2023-05-19T15:53:57.859Z,3.90
2023-05-19T15:56:30.980Z,3.57
2023-05-19T15:59:05.070Z,3.93
2023-05-19T16:01:39.613Z,3.73
2023-05-19T16:04:13.389Z,4.10
2023-05-19T16:06:47.662Z,5.00
2023-05-19T16:09:21.272Z,4.07
2023-05-19T16:11:55.441Z,4.80
2023-05-19T16:14:31.391Z,4.50
2023-05-19T16:17:04.933Z,4.70
2023-05-19T16:19:39.189Z,4.07
2023-05-19T16:22:12.744Z,4.30
2023-05-19T16:24:46.210Z,4.23
2023-05-19T16:27:20.319Z,4.33
2023-05-19T16:29:54.127Z,4.57
2023-05-19T16:32:28.263Z,4.27
2023-05-19T16:35:02.217Z,4.40
2023-05-19T16:37:36.290Z,4.50
2023-05-19T16:40:11.052Z,4.50
2023-05-19T16:42:45.198Z,4.63
2023-05-19T16:45:19.211Z,4.60
2023-05-19T16:47:53.078Z,4.63
2023-05-19T16:50:27.016Z,4.93
2023-05-19T16:53:01.409Z,5.23
2023-05-19T16:55:35.046Z,4.80
2023-05-19T16:58:10.909Z,4.70
2023-05-19T17:00:44.845Z,4.40
2023-05-19T17:03:18.728Z,4.77
2023-05-19T17:05:52.711Z,4.80
2023-05-19T17:08:27.054Z,4.93
2023-05-19T17:11:00.942Z,4.47
2023-05-19T17:13:36.592Z,4.80
2023-05-19T17:16:11.380Z,5.17
2023-05-19T17:18:45.053Z,5.07
2023-05-19T17:21:19.112Z,5.00
2023-05-19T17:23:53.055Z,5.13
2023-05-19T17:26:26.668Z,4.77
2023-05-19T17:29:00.452Z,5.13
2023-05-19T17:31:34.293Z,4.63
2023-05-19T17:34:08.515Z,4.80
2023-05-19T17:36:42.194Z,5.33
2023-05-19T17:39:15.865Z,5.43
2023-05-19T17:41:49.772Z,5.93
2023-05-19T17:44:23.803Z,5.63
2023-05-19T17:46:58.252Z,5.23
2023-05-19T17:49:32.555Z,4.73
2023-05-19T17:52:09.007Z,4.80
2023-05-19T17:54:44.252Z,4.83
2023-05-19T17:57:19.386Z,5.37
2023-05-19T17:59:55.244Z,5.73
2023-05-19T18:02:31.779Z,5.97
2023-05-19T18:05:08.697Z,5.60
2023-05-19T18:07:43.664Z,5.23
2023-05-19T18:10:18.637Z,5.13
2023-05-19T18:12:51.911Z,5.23
2023-05-19T18:15:27.688Z,4.80
2023-05-19T18:18:01.187Z,4.90
2023-05-19T18:20:35.866Z,5.37
2023-05-19T18:23:11.209Z,5.10
2023-05-19T18:25:49.964Z,5.33
2023-05-19T18:28:24.497Z,5.53
2023-05-19T18:31:05.128Z,5.20
2023-05-19T18:33:39.037Z,5.87
2023-05-19T18:36:13.718Z,5.00
2023-05-19T18:38:49.017Z,5.10
2023-05-19T18:41:23.226Z,5.10
2023-05-19T18:43:57.863Z,5.90
2023-05-19T18:46:31.718Z,5.63
2023-05-19T18:49:05.800Z,5.30
2023-05-19T18:51:39.679Z,5.80
2023-05-19T18:54:13.888Z,5.60
2023-05-19T18:56:48.383Z,5.40
2023-05-19T18:59:24.898Z,5.60
2023-05-19T19:01:58.814Z,5.60
2023-05-19T19:04:32.734Z,5.47
2023-05-19T19:07:06.801Z,5.80
2023-05-19T19:09:43.992Z,6.07
2023-05-19T19:12:19.081Z,5.60
2023-05-19T19:14:53.821Z,5.60
2023-05-19T19:17:29.978Z,5.30
2023-05-19T19:20:05.354Z,5.10
2023-05-19T19:22:39.674Z,5.87
2023-05-19T19:25:13.770Z,5.27
2023-05-19T19:27:47.750Z,5.60
2023-05-19T19:30:22.511Z,6.40
2023-05-19T19:32:57.306Z,5.80
2023-05-19T19:35:31.623Z,5.53
2023-05-19T19:38:05.727Z,6.10
2023-05-19T19:40:39.243Z,5.43
2023-05-19T19:43:12.947Z,5.93
2023-05-19T19:45:47.708Z,6.43
2023-05-19T19:48:21.813Z,5.97
2023-05-19T19:50:58.937Z,6.03
2023-05-19T19:53:33.206Z,6.37
2023-05-19T19:56:07.405Z,5.77
2023-05-19T19:58:41.134Z,6.27
2023-05-19T20:01:16.512Z,6.27
2023-05-19T20:03:50.028Z,6.13
2023-05-19T20:06:24.861Z,6.67
2023-05-19T20:09:00.264Z,6.10
2023-05-19T20:11:34.926Z,6.67
2023-05-19T20:14:08.870Z,6.30
2023-05-19T20:16:43.388Z,6.20
2023-05-19T20:19:17.714Z,7.17
2023-05-19T20:21:51.854Z,6.23
2023-05-19T20:24:25.723Z,6.23
2023-05-19T20:26:59.741Z,6.93
2023-05-19T20:29:33.546Z,6.73
2023-05-19T20:32:07.433Z,5.90
2023-05-19T20:34:41.492Z,6.75
2023-05-19T20:37:14.805Z,6.10
2023-05-19T20:39:49.376Z,6.13
2023-05-19T20:42:24.021Z,5.83
2023-05-19T20:44:59.381Z,6.60
2023-05-19T20:47:32.536Z,6.63
2023-05-19T20:50:06.718Z,5.80
2023-05-19T20:52:40.865Z,6.37
2023-05-19T20:55:15.131Z,6.20
2023-05-19T20:57:48.797Z,6.50
2023-05-19T21:00:23.864Z,7.00
2023-05-19T21:02:58.058Z,6.80
2023-05-19T21:05:31.708Z,6.80
2023-05-19T21:08:05.579Z,5.80
2023-05-19T21:10:38.909Z,6.47
2023-05-19T21:13:13.344Z,6.00
2023-05-19T21:15:47.308Z,6.80
2023-05-19T21:18:21.376Z,6.93
2023-05-19T21:20:55.212Z,6.30
2023-05-19T21:23:29.471Z,6.60
2023-05-19T21:26:04.472Z,5.97
2023-05-19T21:28:37.682Z,6.50
2023-05-19T21:31:11.233Z,6.40
2023-05-19T21:33:45.631Z,6.37
2023-05-19T21:36:19.429Z,7.17
2023-05-19T21:38:53.376Z,6.80
2023-05-19T21:41:26.485Z,6.03
2023-05-19T21:44:02.110Z,6.60
2023-05-19T21:46:35.902Z,7.03
2023-05-19T21:49:09.679Z,6.47
2023-05-19T21:51:44.013Z,6.83
2023-05-19T21:54:17.924Z,6.67
2023-05-19T21:56:51.813Z,6.77
2023-05-19T21:59:26.648Z,6.83
2023-05-19T22:02:00.992Z,7.13
2023-05-19T22:04:34.969Z,7.43
2023-05-19T22:07:08.816Z,7.17
2023-05-19T22:09:42.633Z,6.57
2023-05-19T22:12:16.803Z,6.70
2023-05-19T22:14:51.061Z,6.83
2023-05-19T22:17:24.929Z,7.07
2023-05-19T22:19:58.627Z,6.67
2023-05-19T22:22:32.836Z,6.97
2023-05-19T22:25:09.020Z,7.40
2023-05-19T22:27:42.547Z,7.13
2023-05-19T22:30:16.721Z,6.83
2023-05-19T22:32:51.129Z,6.40
2023-05-19T22:35:25.140Z,7.37
2023-05-19T22:37:58.736Z,7.33
2023-05-19T22:40:32.856Z,7.17
2023-05-19T22:43:06.958Z,7.10
2023-05-19T22:45:40.981Z,6.47
2023-05-19T22:48:16.461Z,6.80
2023-05-19T22:50:50.417Z,7.00
2023-05-19T22:53:24.435Z,6.70
2023-05-19T22:55:57.823Z,7.53
2023-05-19T22:58:31.834Z,6.87
2023-05-19T23:01:05.871Z,7.63
2023-05-19T23:03:39.913Z,7.83
2023-05-19T23:06:13.477Z,7.33
2023-05-19T23:08:48.369Z,6.97
2023-05-19T23:11:22.306Z,7.13
2023-05-19T23:13:55.766Z,7.53
2023-05-19T23:16:29.662Z,8.07
2023-05-19T23:19:03.627Z,7.70
2023-05-19T23:21:37.724Z,8.33
2023-05-19T23:24:11.719Z,8.30
2023-05-19T23:26:46.376Z,7.57
2023-05-19T23:29:19.623Z,7.93
2023-05-19T23:31:53.649Z,7.90
2023-05-19T23:34:27.756Z,8.90
2023-05-19T23:37:01.661Z,8.80
2023-05-19T23:39:35.665Z,8.37
2023-05-19T23:42:10.612Z,7.93
2023-05-19T23:44:44.271Z,8.40
2023-05-19T23:47:18.634Z,8.13
2023-05-19T23:49:52.900Z,8.77
2023-05-19T23:52:26.647Z,8.23
2023-05-19T23:55:00.543Z,7.93
2023-05-19T23:57:34.780Z,8.43
